St Thomas, Virgin Islands
Current Conditions -  °F | °C
As of 1:00 PM on Friday 19 Dec 2014 (Local Time) from TUPJ Reporting Station
Scattered Clouds Scattered Clouds  
Wind Chill: 84°   Ceiling: Unl
Heat Index: 90°   Visibility: 6mi
Dew Point: 72°   Wind: 12mph
Humidity: 66%   Direction: 100°E
Pressure: 29.97"   Gusts: NA
Location:  18.3436°N, 64.9322°W
Report Text: TUPJ 191700Z 10010KT 9999 SCT022 29/22 Q1015
Loading
Personal Weather Stations






























Interactive Weather Map New forecast layout! Learn more

10-Day Weather Forecast

Advertisements
Track Severe Weather on mobile